createdAt,value
2024-02-19T00:00:06.818Z,74.22
2024-02-19T00:02:45.061Z,74.34
2024-02-19T00:05:16.830Z,75.41
2024-02-19T00:07:48.733Z,76.36
2024-02-19T00:10:20.715Z,76.08
2024-02-19T00:12:52.838Z,75.83
2024-02-19T00:15:24.611Z,77.11
2024-02-19T00:17:56.458Z,77.63
2024-02-19T00:20:31.201Z,77.88
2024-02-19T00:23:02.805Z,77.89
2024-02-19T00:25:35.066Z,77.48
2024-02-19T00:28:06.965Z,78.14
2024-02-19T00:30:39.699Z,77.44
2024-02-19T00:33:11.677Z,77.86
2024-02-19T00:35:43.430Z,77.72
2024-02-19T00:38:15.121Z,78.24
2024-02-19T00:40:48.081Z,77.68
2024-02-19T00:43:19.806Z,77.94
2024-02-19T00:45:52.850Z,78.70
2024-02-19T00:48:27.532Z,78.01
2024-02-19T00:50:59.435Z,78.24
2024-02-19T00:53:31.164Z,79.00
2024-02-19T00:56:02.971Z,78.49
2024-02-19T00:58:35.201Z,78.59
2024-02-19T01:01:09.807Z,80.25
2024-02-19T01:03:45.295Z,79.19
2024-02-19T01:06:17.180Z,79.73
2024-02-19T01:08:51.762Z,80.40
2024-02-19T01:11:23.536Z,79.85
2024-02-19T01:13:55.294Z,80.89
2024-02-19T01:16:27.102Z,80.34
2024-02-19T01:18:58.978Z,79.82
2024-02-19T01:21:33.338Z,80.60
2024-02-19T01:24:05.037Z,80.72
2024-02-19T01:26:37.101Z,81.11
2024-02-19T01:29:08.841Z,81.02
2024-02-19T01:31:40.566Z,81.43
2024-02-19T01:34:15.748Z,81.28
2024-02-19T01:36:47.799Z,81.34
2024-02-19T01:39:21.864Z,81.81
2024-02-19T01:41:53.533Z,81.22
2024-02-19T01:44:25.722Z,82.25
2024-02-19T01:46:58.817Z,81.97
2024-02-19T01:49:30.731Z,81.58
2024-02-19T01:52:02.838Z,82.95
2024-02-19T01:54:35.689Z,83.17
2024-02-19T01:57:08.205Z,82.36
2024-02-19T01:59:44.680Z,82.86
2024-02-19T02:02:17.989Z,83.59
2024-02-19T02:04:51.497Z,82.81
2024-02-19T02:07:23.989Z,82.84
2024-02-19T02:09:56.173Z,83.05
2024-02-19T02:12:28.133Z,82.85
2024-02-19T02:14:59.888Z,83.13
2024-02-19T02:17:34.585Z,81.93
2024-02-19T02:20:06.644Z,82.68
2024-02-19T02:22:39.804Z,82.65
2024-02-19T02:25:11.581Z,82.53
2024-02-19T02:27:43.347Z,82.81
2024-02-19T02:30:15.517Z,82.16
2024-02-19T02:32:47.315Z,82.73
2024-02-19T02:35:19.077Z,81.96
2024-02-19T02:37:51.980Z,82.01
2024-02-19T02:40:23.776Z,82.36
2024-02-19T02:42:55.742Z,82.04
2024-02-19T02:45:27.487Z,82.12
2024-02-19T02:47:59.460Z,82.07
2024-02-19T02:50:31.250Z,81.96
2024-02-19T02:53:03.008Z,82.84
2024-02-19T02:55:35.943Z,82.43
2024-02-19T02:58:07.694Z,81.47
2024-02-19T03:00:39.920Z,81.57
2024-02-19T03:03:12.258Z,81.56
2024-02-19T03:05:43.991Z,81.48
2024-02-19T03:08:15.752Z,81.64
2024-02-19T03:10:47.523Z,81.71
2024-02-19T03:13:19.386Z,81.87
2024-02-19T03:15:51.435Z,81.47
2024-02-19T03:18:25.637Z,81.40
2024-02-19T03:20:57.749Z,81.02
2024-02-19T03:23:29.566Z,80.62
2024-02-19T03:26:01.242Z,80.52
2024-02-19T03:28:34.444Z,80.75
2024-02-19T03:31:06.216Z,80.35
2024-02-19T03:33:39.946Z,80.16
2024-02-19T03:36:12.326Z,79.72
2024-02-19T03:38:44.118Z,79.88
2024-02-19T03:41:15.849Z,79.58
2024-02-19T03:43:50.563Z,79.46
2024-02-19T03:46:22.190Z,79.77
2024-02-19T03:48:58.132Z,80.07
2024-02-19T03:51:29.999Z,79.75
2024-02-19T03:54:01.774Z,79.79
2024-02-19T03:56:33.545Z,79.61
2024-02-19T03:59:06.219Z,80.22
2024-02-19T04:01:38.983Z,79.58
2024-02-19T04:04:11.019Z,79.90
2024-02-19T04:06:43.460Z,79.47
2024-02-19T04:09:15.378Z,80.23
2024-02-19T04:11:47.121Z,79.69
2024-02-19T04:14:18.838Z,79.58
2024-02-19T04:16:50.549Z,79.59
2024-02-19T04:19:22.403Z,79.45
2024-02-19T04:21:54.162Z,79.16
2024-02-19T04:24:25.922Z,78.85
2024-02-19T04:26:57.702Z,78.81
2024-02-19T04:29:29.445Z,78.82
2024-02-19T04:32:01.166Z,79.01
2024-02-19T04:34:38.316Z,78.69
2024-02-19T04:37:13.296Z,77.90
2024-02-19T04:39:45.149Z,78.10
2024-02-19T04:42:17.642Z,77.86
2024-02-19T04:44:49.330Z,77.90
2024-02-19T04:47:21.433Z,77.75
2024-02-19T04:49:53.390Z,77.79
2024-02-19T04:52:27.889Z,77.29
2024-02-19T04:54:59.777Z,77.53
2024-02-19T04:57:31.637Z,77.66
2024-02-19T05:00:04.388Z,77.38
2024-02-19T05:02:36.213Z,77.00
2024-02-19T05:05:09.909Z,77.73
2024-02-19T05:07:41.686Z,77.61
2024-02-19T05:10:14.371Z,76.98
2024-02-19T05:12:46.149Z,77.11
2024-02-19T05:15:17.861Z,77.64
2024-02-19T05:17:49.638Z,77.61
2024-02-19T05:20:21.547Z,77.62
2024-02-19T05:22:53.251Z,77.05
2024-02-19T05:25:25.180Z,77.10
2024-02-19T05:27:59.438Z,76.76
2024-02-19T05:30:31.458Z,76.88
2024-02-19T05:33:03.748Z,76.85
2024-02-19T05:35:35.549Z,76.53
2024-02-19T05:38:07.274Z,76.51
2024-02-19T05:40:42.623Z,76.72
2024-02-19T05:43:14.917Z,76.64
2024-02-19T05:45:46.747Z,76.95
2024-02-19T05:48:22.668Z,76.45
2024-02-19T05:50:55.885Z,76.88
2024-02-19T05:53:27.764Z,76.36
2024-02-19T05:55:59.459Z,76.52
2024-02-19T05:58:34.134Z,75.84
2024-02-19T06:01:05.796Z,75.94
2024-02-19T06:03:37.758Z,75.36
2024-02-19T06:06:09.619Z,75.04
2024-02-19T06:08:41.392Z,74.93
2024-02-19T06:11:13.090Z,74.84
2024-02-19T06:13:46.045Z,74.46
2024-02-19T06:16:18.133Z,74.27
2024-02-19T06:18:50.279Z,73.97
2024-02-19T06:21:22.139Z,73.70
2024-02-19T06:23:53.801Z,73.73
2024-02-19T06:26:25.547Z,73.62
2024-02-19T06:28:57.323Z,73.54
2024-02-19T06:31:29.342Z,73.55
2024-02-19T06:34:04.468Z,73.80
2024-02-19T06:36:36.417Z,73.44
2024-02-19T06:39:08.673Z,73.59
2024-02-19T06:41:40.381Z,73.35
2024-02-19T06:44:12.176Z,72.88
2024-02-19T06:46:43.960Z,73.10
2024-02-19T06:49:16.075Z,72.73
2024-02-19T06:51:47.898Z,72.61
2024-02-19T06:54:19.679Z,72.42
2024-02-19T06:56:51.426Z,72.70
2024-02-19T06:59:23.168Z,72.60
2024-02-19T07:01:54.988Z,72.51
2024-02-19T07:04:26.747Z,72.34
2024-02-19T07:06:58.517Z,72.28
2024-02-19T07:09:30.225Z,71.90
2024-02-19T07:12:02.017Z,72.04
2024-02-19T07:14:33.816Z,72.21
2024-02-19T07:17:05.609Z,72.05
2024-02-19T07:19:37.448Z,71.97
2024-02-19T07:22:09.253Z,71.73
2024-02-19T07:24:42.380Z,72.06
2024-02-19T07:27:14.085Z,72.05
2024-02-19T07:29:45.821Z,72.24
2024-02-19T07:32:17.574Z,71.98
2024-02-19T07:34:49.496Z,71.56
2024-02-19T07:37:21.544Z,71.86
2024-02-19T07:39:53.478Z,71.88
2024-02-19T07:42:25.369Z,71.86
2024-02-19T07:44:57.239Z,71.57
2024-02-19T07:47:28.980Z,71.49
2024-02-19T07:50:04.102Z,71.26
2024-02-19T07:52:36.069Z,71.20
2024-02-19T07:55:08.214Z,71.30
2024-02-19T07:57:40.112Z,71.19
2024-02-19T08:00:13.465Z,71.45
2024-02-19T08:02:50.888Z,70.14
2024-02-19T08:05:22.677Z,67.40
2024-02-19T08:07:54.644Z,61.86
2024-02-19T08:10:26.455Z,58.48
2024-02-19T08:12:58.401Z,57.10
2024-02-19T08:15:30.366Z,55.80
2024-02-19T08:18:02.167Z,56.63
2024-02-19T08:20:34.554Z,56.87
2024-02-19T08:23:06.375Z,57.56
2024-02-19T08:25:38.751Z,58.74
2024-02-19T08:28:13.504Z,58.28
2024-02-19T08:30:45.638Z,58.35
2024-02-19T08:33:17.506Z,59.15
2024-02-19T08:35:51.482Z,60.11
2024-02-19T08:38:26.119Z,60.80
2024-02-19T08:40:57.859Z,60.45
2024-02-19T08:43:31.177Z,60.82
2024-02-19T08:46:03.054Z,61.18
2024-02-19T08:48:37.891Z,61.18
2024-02-19T08:51:10.430Z,61.26
2024-02-19T08:53:42.219Z,61.17
2024-02-19T08:56:14.072Z,61.49
2024-02-19T08:58:45.864Z,61.51
2024-02-19T09:01:20.246Z,61.50
2024-02-19T09:03:52.235Z,61.18
2024-02-19T09:06:24.109Z,61.61
2024-02-19T09:08:55.903Z,61.96
2024-02-19T09:11:28.126Z,62.11
2024-02-19T09:14:00.195Z,61.79
2024-02-19T09:16:35.575Z,61.77
2024-02-19T09:19:10.177Z,62.19
2024-02-19T09:21:44.661Z,62.03
2024-02-19T09:24:17.889Z,61.65
2024-02-19T09:26:49.611Z,61.33
2024-02-19T09:29:23.791Z,61.47
2024-02-19T09:31:55.994Z,61.47
2024-02-19T09:34:27.956Z,61.64
2024-02-19T09:37:01.087Z,61.95
2024-02-19T09:39:33.384Z,61.94
2024-02-19T09:42:14.238Z,61.70
2024-02-19T09:44:48.547Z,61.78
2024-02-19T09:47:21.334Z,61.57
2024-02-19T09:49:54.665Z,61.64
2024-02-19T09:52:30.032Z,61.45
2024-02-19T09:55:04.630Z,62.08
2024-02-19T09:57:39.342Z,62.26
2024-02-19T10:00:12.593Z,62.20
2024-02-19T10:02:44.336Z,62.25
2024-02-19T10:05:16.293Z,62.03
2024-02-19T10:07:48.189Z,62.36
2024-02-19T10:10:20.233Z,62.54
2024-02-19T10:12:52.043Z,62.38
2024-02-19T10:15:23.958Z,62.57
2024-02-19T10:17:55.733Z,61.74
2024-02-19T10:20:29.371Z,60.45
2024-02-19T10:23:01.530Z,60.06
2024-02-19T10:25:33.271Z,59.87
2024-02-19T10:28:09.117Z,60.67
2024-02-19T10:30:44.589Z,60.21
2024-02-19T10:33:16.801Z,60.23
2024-02-19T10:35:50.732Z,59.95
2024-02-19T10:38:23.379Z,59.49
2024-02-19T10:40:56.056Z,59.04
2024-02-19T10:43:27.880Z,59.23
2024-02-19T10:46:00.341Z,59.21
2024-02-19T10:48:33.539Z,59.89
2024-02-19T10:51:06.010Z,59.89
2024-02-19T10:53:37.899Z,59.54
2024-02-19T10:56:21.788Z,59.82
2024-02-19T10:58:54.841Z,59.34
2024-02-19T11:01:48.632Z,59.88
2024-02-19T11:04:25.038Z,59.92
2024-02-19T11:06:58.716Z,59.24
2024-02-19T11:09:37.631Z,58.88
2024-02-19T11:12:15.332Z,58.65
2024-02-19T11:14:51.397Z,57.44
2024-02-19T11:17:26.576Z,57.79
2024-02-19T11:20:00.487Z,57.01
2024-02-19T11:22:33.440Z,55.56
2024-02-19T11:25:05.460Z,55.85
2024-02-19T11:27:37.320Z,55.46
2024-02-19T11:30:13.727Z,55.54
2024-02-19T11:32:46.110Z,55.32
2024-02-19T11:35:17.994Z,54.01
2024-02-19T11:37:49.936Z,53.93
2024-02-19T11:40:21.831Z,53.64
2024-02-19T11:42:53.720Z,53.98
2024-02-19T11:45:26.319Z,53.54
2024-02-19T11:48:04.017Z,53.36
2024-02-19T11:50:35.889Z,53.70
2024-02-19T11:53:09.147Z,53.54
2024-02-19T11:55:41.205Z,52.92
2024-02-19T11:58:16.235Z,53.30
2024-02-19T12:00:48.816Z,53.38
2024-02-19T12:03:27.746Z,53.60
2024-02-19T12:06:01.729Z,53.91
2024-02-19T12:08:33.691Z,53.69
2024-02-19T12:11:07.966Z,53.95
2024-02-19T12:13:42.024Z,53.89
2024-02-19T12:16:16.113Z,54.51
2024-02-19T12:18:50.240Z,54.64
2024-02-19T12:21:23.609Z,54.89
2024-02-19T12:23:55.597Z,54.92
2024-02-19T12:26:27.762Z,54.79
2024-02-19T12:28:59.488Z,55.10
2024-02-19T12:31:31.903Z,55.13
2024-02-19T12:34:03.823Z,55.11
2024-02-19T12:36:36.358Z,54.59
2024-02-19T12:39:11.442Z,54.71
2024-02-19T12:41:48.226Z,54.74
2024-02-19T12:44:20.148Z,55.08
2024-02-19T12:46:51.906Z,54.62
2024-02-19T12:49:23.782Z,54.43
2024-02-19T12:52:01.971Z,54.69
2024-02-19T12:54:33.791Z,53.69
2024-02-19T12:57:07.123Z,53.58
2024-02-19T12:59:41.997Z,53.87
2024-02-19T13:02:17.410Z,54.03
2024-02-19T13:04:50.554Z,54.00
2024-02-19T13:07:22.706Z,54.19
2024-02-19T13:09:55.792Z,54.68
2024-02-19T13:12:27.670Z,55.06
2024-02-19T13:15:00.854Z,55.52
2024-02-19T13:17:40.039Z,55.79
2024-02-19T13:20:16.693Z,55.93
2024-02-19T13:22:48.743Z,56.35
2024-02-19T13:25:21.174Z,56.46
2024-02-19T13:27:53.014Z,56.34
2024-02-19T13:30:25.011Z,55.99
2024-02-19T13:33:00.246Z,56.17
2024-02-19T13:35:32.157Z,56.28
2024-02-19T13:38:04.135Z,56.50
2024-02-19T13:40:36.554Z,56.40
2024-02-19T13:43:08.909Z,56.77
2024-02-19T13:46:04.806Z,56.45
2024-02-19T13:48:38.162Z,56.96
2024-02-19T13:51:10.132Z,57.09
2024-02-19T13:53:41.855Z,56.96
2024-02-19T13:56:16.138Z,57.15
2024-02-19T13:58:48.623Z,57.13
2024-02-19T14:01:20.807Z,56.74
2024-02-19T14:03:52.857Z,56.35
2024-02-19T14:06:24.834Z,56.38
2024-02-19T14:08:58.037Z,56.26
2024-02-19T14:11:30.975Z,56.22
2024-02-19T14:14:03.792Z,56.25
2024-02-19T14:16:36.112Z,56.40
2024-02-19T14:19:08.039Z,56.43
2024-02-19T14:21:39.804Z,56.55
2024-02-19T14:24:11.592Z,56.37
2024-02-19T14:26:44.090Z,56.37
2024-02-19T14:29:16.313Z,56.28
2024-02-19T14:31:54.216Z,56.36
2024-02-19T14:34:26.704Z,56.42
2024-02-19T14:36:58.609Z,55.96
2024-02-19T14:39:31.806Z,56.19
2024-02-19T14:42:03.698Z,56.27
2024-02-19T14:44:35.874Z,56.41
2024-02-19T14:47:07.816Z,56.63
2024-02-19T14:49:40.847Z,56.80
2024-02-19T14:52:12.877Z,56.83
2024-02-19T14:54:44.846Z,57.00
2024-02-19T14:57:17.752Z,56.62
2024-02-19T14:59:51.872Z,56.88
2024-02-19T15:02:23.709Z,57.71
2024-02-19T15:04:55.575Z,57.58
2024-02-19T15:07:27.505Z,57.40
2024-02-19T15:10:00.324Z,57.22
2024-02-19T15:12:34.314Z,56.92
2024-02-19T15:15:11.239Z,56.98
2024-02-19T15:17:43.185Z,57.44
2024-02-19T15:20:15.988Z,57.55
2024-02-19T15:22:50.369Z,57.95
2024-02-19T15:25:22.154Z,58.25
2024-02-19T15:27:54.020Z,58.73
2024-02-19T15:30:25.918Z,58.88
2024-02-19T15:32:59.445Z,59.06
2024-02-19T15:35:31.341Z,59.80
2024-02-19T15:38:03.135Z,59.80
2024-02-19T15:40:36.028Z,60.48
2024-02-19T15:43:10.465Z,60.84
2024-02-19T15:45:45.653Z,61.15
2024-02-19T15:48:17.616Z,61.74
2024-02-19T15:50:49.541Z,61.66
2024-02-19T15:53:28.221Z,62.04
2024-02-19T15:56:01.792Z,62.17
2024-02-19T15:58:37.266Z,62.53
2024-02-19T16:01:09.166Z,62.75
2024-02-19T16:03:40.931Z,62.98
2024-02-19T16:06:13.283Z,62.99
2024-02-19T16:08:45.777Z,62.95
2024-02-19T16:11:17.533Z,62.69
2024-02-19T16:13:51.365Z,62.56
2024-02-19T16:16:24.689Z,61.89
2024-02-19T16:18:58.258Z,61.88
2024-02-19T16:21:30.174Z,61.30
2024-02-19T16:24:01.969Z,61.08
2024-02-19T16:26:34.303Z,60.93
2024-02-19T16:29:06.216Z,60.63
2024-02-19T16:31:40.054Z,60.68
2024-02-19T16:34:11.982Z,60.59
2024-02-19T16:36:43.817Z,60.20
2024-02-19T16:39:15.711Z,60.60
2024-02-19T16:41:47.511Z,60.00
2024-02-19T16:44:19.708Z,60.60
2024-02-19T16:46:51.751Z,60.53
2024-02-19T16:49:26.345Z,60.44
2024-02-19T16:51:58.386Z,60.72
2024-02-19T16:54:30.224Z,60.65
2024-02-19T16:57:01.966Z,60.59
2024-02-19T16:59:33.775Z,61.21
2024-02-19T17:02:06.860Z,61.24
2024-02-19T17:04:40.775Z,60.87
2024-02-19T17:07:12.705Z,61.30
2024-02-19T17:09:44.570Z,61.09
2024-02-19T17:12:16.342Z,61.12
2024-02-19T17:14:48.587Z,61.16
2024-02-19T17:17:20.445Z,61.07
2024-02-19T17:19:52.404Z,60.78
2024-02-19T17:22:24.262Z,60.95
2024-02-19T17:24:56.183Z,61.32
2024-02-19T17:27:28.656Z,61.25
2024-02-19T17:30:00.438Z,61.45
2024-02-19T17:32:32.145Z,61.65
2024-02-19T17:35:04.928Z,61.64
2024-02-19T17:37:36.885Z,61.34
2024-02-19T17:40:12.710Z,61.53
2024-02-19T17:42:45.858Z,61.61
2024-02-19T17:45:17.863Z,61.62
2024-02-19T17:47:51.845Z,62.09
2024-02-19T17:50:23.781Z,62.03
2024-02-19T17:52:59.863Z,62.21
2024-02-19T17:55:31.832Z,62.23
2024-02-19T17:58:04.158Z,62.18
2024-02-19T18:00:36.104Z,62.68
2024-02-19T18:03:07.995Z,62.83
2024-02-19T18:05:40.532Z,63.22
2024-02-19T18:08:13.282Z,63.14
2024-02-19T18:10:45.151Z,63.09
2024-02-19T18:13:20.343Z,63.10
2024-02-19T18:15:55.981Z,63.06
2024-02-19T18:18:28.828Z,62.71
2024-02-19T18:21:00.883Z,63.00
2024-02-19T18:23:33.034Z,63.26
2024-02-19T18:26:06.871Z,63.12
2024-02-19T18:28:39.143Z,63.42
2024-02-19T18:31:12.756Z,63.39
2024-02-19T18:33:44.869Z,63.68
2024-02-19T18:36:16.811Z,63.33
2024-02-19T18:38:48.951Z,63.39
2024-02-19T18:41:21.909Z,63.44
2024-02-19T18:43:53.703Z,63.96
2024-02-19T18:46:26.556Z,63.39
2024-02-19T18:48:59.283Z,63.62
2024-02-19T18:51:31.150Z,63.68
2024-02-19T18:54:02.909Z,63.51
2024-02-19T18:56:34.855Z,63.22
2024-02-19T18:59:06.608Z,63.56
2024-02-19T19:01:38.489Z,63.68
2024-02-19T19:04:11.542Z,63.52
2024-02-19T19:06:43.761Z,63.93
2024-02-19T19:09:15.653Z,63.79
2024-02-19T19:11:47.454Z,63.63
2024-02-19T19:14:19.813Z,64.13
2024-02-19T19:16:53.002Z,63.77
2024-02-19T19:19:26.122Z,63.60
2024-02-19T19:21:59.091Z,64.18
2024-02-19T19:24:32.968Z,63.81
2024-02-19T19:27:07.623Z,63.74
2024-02-19T19:29:39.963Z,63.64
2024-02-19T19:32:17.110Z,63.88
2024-02-19T19:34:49.058Z,64.47
2024-02-19T19:37:24.785Z,64.10
2024-02-19T19:39:56.731Z,64.58
2024-02-19T19:42:28.651Z,64.62
2024-02-19T19:45:03.713Z,64.58
2024-02-19T19:47:40.987Z,64.97
2024-02-19T19:50:15.781Z,65.40
2024-02-19T19:52:48.406Z,65.44
2024-02-19T19:55:38.298Z,65.67
2024-02-19T19:58:28.434Z,65.51
2024-02-19T20:01:05.520Z,65.78
2024-02-19T20:03:38.335Z,65.79
2024-02-19T20:06:11.992Z,66.30
2024-02-19T20:08:46.606Z,65.98
2024-02-19T20:11:18.337Z,66.35
2024-02-19T20:13:51.368Z,66.46
2024-02-19T20:16:24.639Z,67.25
2024-02-19T20:18:58.337Z,67.05
2024-02-19T20:21:30.278Z,67.35
2024-02-19T20:24:03.336Z,66.89
2024-02-19T20:26:38.790Z,67.17
2024-02-19T20:29:17.959Z,67.59
2024-02-19T20:31:49.659Z,66.88
2024-02-19T20:36:53.506Z,68.09
2024-02-19T20:39:26.071Z,67.68
2024-02-19T20:41:57.809Z,67.63
2024-02-19T20:44:29.539Z,67.93
2024-02-19T20:47:01.401Z,67.96
2024-02-19T20:49:33.276Z,68.13
2024-02-19T20:52:06.503Z,67.39
2024-02-19T20:54:38.420Z,67.93
2024-02-19T20:57:10.756Z,67.65
2024-02-19T20:59:42.627Z,68.00
2024-02-19T21:02:14.525Z,67.69
2024-02-19T21:04:46.376Z,68.67
2024-02-19T21:07:18.500Z,67.99
2024-02-19T21:09:50.821Z,67.62
2024-02-19T21:12:22.671Z,68.24
2024-02-19T21:14:54.590Z,68.34
2024-02-19T21:17:29.614Z,68.56
2024-02-19T21:20:01.942Z,68.16
2024-02-19T21:22:33.948Z,68.14
2024-02-19T21:25:06.332Z,68.13
2024-02-19T21:27:38.206Z,68.35
2024-02-19T21:30:10.524Z,69.15
2024-02-19T21:32:45.095Z,68.63
2024-02-19T21:35:18.570Z,68.85
2024-02-19T21:37:50.411Z,69.01
2024-02-19T21:40:22.287Z,69.25
2024-02-19T21:42:54.077Z,69.15
2024-02-19T21:45:25.941Z,69.20
2024-02-19T21:47:58.256Z,69.14
2024-02-19T21:50:32.458Z,68.86
2024-02-19T21:53:05.708Z,68.99
2024-02-19T21:55:40.456Z,69.77
2024-02-19T21:58:12.472Z,69.15
2024-02-19T22:00:44.210Z,69.75
2024-02-19T22:03:16.579Z,69.78
2024-02-19T22:05:48.523Z,69.98
2024-02-19T22:08:20.612Z,70.17
2024-02-19T22:10:52.501Z,70.15
2024-02-19T22:13:24.427Z,69.80
2024-02-19T22:15:56.341Z,70.03
2024-02-19T22:18:28.732Z,69.88
2024-02-19T22:21:00.576Z,70.92
2024-02-19T22:23:32.335Z,70.81
2024-02-19T22:26:05.402Z,70.56
2024-02-19T22:28:40.612Z,70.62
2024-02-19T22:31:12.521Z,70.96
2024-02-19T22:33:44.411Z,71.57
2024-02-19T22:36:16.247Z,70.64
2024-02-19T22:38:48.098Z,71.06
2024-02-19T22:41:19.991Z,71.60
2024-02-19T22:43:53.047Z,71.47
2024-02-19T22:46:24.820Z,71.87
2024-02-19T22:48:58.058Z,71.74
2024-02-19T22:51:29.996Z,71.28
2024-02-19T22:54:03.885Z,71.69
2024-02-19T22:56:35.851Z,71.74
2024-02-19T22:59:14.657Z,71.95
2024-02-19T23:01:53.206Z,72.41
2024-02-19T23:04:25.057Z,72.27
2024-02-19T23:06:56.994Z,71.59
2024-02-19T23:09:30.481Z,71.90
2024-02-19T23:12:02.360Z,71.71
2024-02-19T23:14:34.210Z,72.51
2024-02-19T23:17:06.095Z,72.08
2024-02-19T23:19:37.907Z,71.81
2024-02-19T23:22:10.710Z,71.84
2024-02-19T23:24:42.413Z,72.20
2024-02-19T23:27:14.087Z,72.21
2024-02-19T23:29:45.871Z,72.36
2024-02-19T23:32:17.602Z,72.55
2024-02-19T23:34:49.528Z,72.42
2024-02-19T23:37:24.036Z,72.34
2024-02-19T23:39:55.993Z,73.07
2024-02-19T23:42:27.809Z,72.23
2024-02-19T23:44:59.598Z,72.98
2024-02-19T23:47:31.408Z,73.55
2024-02-19T23:50:06.578Z,72.85
2024-02-19T23:52:41.031Z,73.45
2024-02-19T23:55:18.137Z,73.49
2024-02-19T23:57:50.049Z,73.59
